createdAt,value
2022-11-20T00:00:20.274Z,85.25
2022-11-20T00:01:42.680Z,77.93
2022-11-20T00:03:04.183Z,77.55
2022-11-20T00:04:26.469Z,83.18
2022-11-20T00:05:50.181Z,77.68
2022-11-20T00:07:26.625Z,88.05
2022-11-20T00:08:59.675Z,79.55
2022-11-20T00:10:26.062Z,85.90
2022-11-20T00:12:02.210Z,88.85
2022-11-20T00:13:27.354Z,86.57
2022-11-20T00:14:55.711Z,80.15
2022-11-20T00:16:21.697Z,77.03
2022-11-20T00:17:45.974Z,85.78
2022-11-20T00:19:10.626Z,83.68
2022-11-20T00:20:39.669Z,82.20
2022-11-20T00:22:04.018Z,89.68
2022-11-20T00:23:26.942Z,85.28
2022-11-20T00:24:49.370Z,87.18
2022-11-20T00:26:12.827Z,79.07
2022-11-20T00:27:35.205Z,82.13
2022-11-20T00:29:04.095Z,87.68
2022-11-20T00:30:32.331Z,85.65
2022-11-20T00:31:59.819Z,91.75
2022-11-20T00:33:26.291Z,86.25
2022-11-20T00:34:47.646Z,90.72
2022-11-20T00:36:14.571Z,74.28
2022-11-20T00:37:36.660Z,88.25
2022-11-20T00:39:02.600Z,91.30
2022-11-20T00:40:24.860Z,91.38
2022-11-20T00:41:46.962Z,85.70
2022-11-20T00:43:09.098Z,94.05
2022-11-20T00:44:31.336Z,98.90
2022-11-20T00:45:52.709Z,88.45
2022-11-20T00:47:16.283Z,86.35
2022-11-20T00:48:38.044Z,94.93
2022-11-20T00:51:24.907Z,97.80
2022-11-20T00:52:47.372Z,95.90
2022-11-20T00:54:09.624Z,84.38
2022-11-20T00:55:30.832Z,92.78
2022-11-20T00:56:55.226Z,69.88
2022-11-20T00:58:16.343Z,87.80
2022-11-20T00:59:38.359Z,80.90
2022-11-20T01:01:04.148Z,91.95
2022-11-20T01:02:30.289Z,85.35
2022-11-20T01:03:54.538Z,80.88
2022-11-20T01:05:18.897Z,82.93
2022-11-20T01:06:44.479Z,86.82
2022-11-20T01:08:05.949Z,83.90
2022-11-20T01:09:27.948Z,81.28
2022-11-20T01:10:55.757Z,82.65
2022-11-20T01:12:17.844Z,78.72
2022-11-20T01:13:40.305Z,76.95
2022-11-20T01:15:02.487Z,76.38
2022-11-20T01:16:25.830Z,79.18
2022-11-20T01:17:49.248Z,74.30
2022-11-20T01:19:17.677Z,72.72
2022-11-20T01:20:39.495Z,76.35
2022-11-20T01:22:01.727Z,75.43
2022-11-20T01:23:22.994Z,83.75
2022-11-20T01:24:46.662Z,92.80
2022-11-20T01:26:09.488Z,93.30
2022-11-20T01:27:31.659Z,101.55
2022-11-20T01:28:54.426Z,87.78
2022-11-20T01:30:16.795Z,104.05
2022-11-20T01:31:39.207Z,98.80
2022-11-20T01:33:03.014Z,99.20
2022-11-20T01:34:26.144Z,93.32
2022-11-20T01:35:47.638Z,103.70
2022-11-20T01:37:09.720Z,96.30
2022-11-20T01:39:54.787Z,103.57
2022-11-20T01:41:33.945Z,108.47
2022-11-20T01:43:22.397Z,89.40
2022-11-20T01:44:59.385Z,81.47
2022-11-20T01:46:21.124Z,92.85
2022-11-20T01:47:47.624Z,89.03
2022-11-20T01:49:18.803Z,86.10
2022-11-20T01:50:41.068Z,86.23
2022-11-20T01:52:07.299Z,83.15
2022-11-20T01:53:32.338Z,72.85
2022-11-20T01:55:00.898Z,73.47
2022-11-20T01:56:29.582Z,71.93
2022-11-20T01:57:55.814Z,77.78
2022-11-20T01:59:26.162Z,80.90
2022-11-20T02:00:59.344Z,70.88
2022-11-20T02:02:27.234Z,70.05
2022-11-20T02:03:54.088Z,72.55
2022-11-20T02:05:33.850Z,75.65
2022-11-20T02:07:03.580Z,77.57
2022-11-20T02:08:29.249Z,68.85
2022-11-20T02:09:59.033Z,67.25
2022-11-20T02:11:30.048Z,65.57
2022-11-20T02:13:13.113Z,67.80
2022-11-20T02:14:35.326Z,77.65
2022-11-20T02:15:58.283Z,72.43
2022-11-20T02:17:23.253Z,76.97
2022-11-20T02:18:45.555Z,73.35
2022-11-20T02:20:11.743Z,72.70
2022-11-20T02:21:40.636Z,67.63
2022-11-20T02:23:07.128Z,81.78
2022-11-20T02:24:30.851Z,80.95
2022-11-20T02:25:54.014Z,70.75
2022-11-20T02:27:18.043Z,77.50
2022-11-20T02:28:39.443Z,68.72
2022-11-20T02:30:04.640Z,68.18
2022-11-20T02:31:25.860Z,65.05
2022-11-20T02:32:48.178Z,64.18
2022-11-20T02:34:10.810Z,73.45
2022-11-20T02:35:44.045Z,66.20
2022-11-20T02:37:06.531Z,70.75
2022-11-20T02:38:28.079Z,65.63
2022-11-20T02:39:53.763Z,76.80
2022-11-20T02:41:17.529Z,67.93
2022-11-20T02:42:39.987Z,68.25
2022-11-20T02:44:01.305Z,78.07
2022-11-20T02:45:24.810Z,76.20
2022-11-20T02:46:46.875Z,78.40
2022-11-20T02:48:08.911Z,77.95
2022-11-20T02:49:31.142Z,73.63
2022-11-20T02:50:52.160Z,72.15
2022-11-20T02:52:14.310Z,60.28
2022-11-20T02:53:35.315Z,73.80
2022-11-20T02:54:59.185Z,63.25
2022-11-20T02:56:21.653Z,72.65
2022-11-20T02:57:42.867Z,75.50
2022-11-20T02:59:05.674Z,72.47
2022-11-20T03:00:27.656Z,73.90
2022-11-20T03:01:49.771Z,76.53
2022-11-20T03:04:32.494Z,72.07
2022-11-20T03:05:54.554Z,69.07
2022-11-20T03:07:16.946Z,77.25
2022-11-20T03:08:38.249Z,65.47
2022-11-20T03:10:01.864Z,74.75
2022-11-20T03:11:24.289Z,61.25
2022-11-20T03:12:46.562Z,72.75
2022-11-20T03:14:08.961Z,73.60
2022-11-20T03:15:29.906Z,65.95
2022-11-20T03:16:52.223Z,74.97
2022-11-20T03:18:14.722Z,84.80
2022-11-20T03:19:37.142Z,81.82
2022-11-20T03:21:03.420Z,80.80
2022-11-20T03:22:24.813Z,73.97
2022-11-20T03:23:47.289Z,71.85
2022-11-20T03:25:10.136Z,82.13
2022-11-20T03:26:32.366Z,81.07
2022-11-20T03:27:54.534Z,88.63
2022-11-20T03:29:16.688Z,89.93
2022-11-20T03:30:37.721Z,97.05
2022-11-20T03:32:03.399Z,116.15
2022-11-20T03:34:46.014Z,99.97
2022-11-20T03:36:09.704Z,100.53
2022-11-20T03:37:32.129Z,100.20
2022-11-20T03:38:55.429Z,100.50
2022-11-20T03:40:19.724Z,94.38
2022-11-20T03:41:44.895Z,100.95
2022-11-20T03:43:05.965Z,97.35
2022-11-20T03:44:30.389Z,105.57
2022-11-20T03:45:51.639Z,94.70
2022-11-20T03:47:14.056Z,101.95
2022-11-20T03:48:36.028Z,109.20
2022-11-20T03:49:57.091Z,100.00
2022-11-20T03:51:21.566Z,73.78
2022-11-20T03:52:43.147Z,96.88
2022-11-20T03:54:07.101Z,79.22
2022-11-20T03:55:29.358Z,74.28
2022-11-20T03:56:51.344Z,68.55
2022-11-20T03:58:22.783Z,69.38
2022-11-20T03:59:44.802Z,71.18
2022-11-20T04:01:12.086Z,63.65
2022-11-20T04:02:35.877Z,62.25
2022-11-20T04:03:59.202Z,70.75
2022-11-20T04:05:20.603Z,64.00
2022-11-20T04:07:04.274Z,62.67
2022-11-20T04:08:31.399Z,64.70
2022-11-20T04:09:54.122Z,72.18
2022-11-20T04:11:22.527Z,65.43
2022-11-20T04:12:45.663Z,75.60
2022-11-20T04:14:15.128Z,81.22
2022-11-20T04:15:38.621Z,75.78
2022-11-20T04:17:04.134Z,71.43
2022-11-20T04:18:31.036Z,73.35
2022-11-20T04:21:41.406Z,95.53
2022-11-20T04:23:11.830Z,74.30
2022-11-20T04:24:37.478Z,76.35
2022-11-20T04:26:03.810Z,74.32
2022-11-20T04:27:29.664Z,67.80
2022-11-20T04:28:53.477Z,72.93
2022-11-20T04:30:28.593Z,75.22
2022-11-20T04:32:04.615Z,72.32
2022-11-20T04:33:34.614Z,74.35
2022-11-20T04:35:06.914Z,84.82
2022-11-20T04:36:31.190Z,71.13
2022-11-20T04:39:36.516Z,59.80
2022-11-20T04:41:08.751Z,75.75
2022-11-20T04:42:36.931Z,75.80
2022-11-20T04:46:47.955Z,89.30
2022-11-20T04:51:51.591Z,75.88
2022-11-20T04:54:26.647Z,81.38
2022-11-20T04:56:26.183Z,79.43
2022-11-20T04:58:56.746Z,80.25
2022-11-20T05:04:35.246Z,60.05
2022-11-20T05:06:03.252Z,96.32
2022-11-20T05:07:41.673Z,94.00
2022-11-20T05:09:19.631Z,88.13
2022-11-20T05:10:42.486Z,81.55
2022-11-20T05:12:25.775Z,79.15
2022-11-20T05:14:03.259Z,83.88
2022-11-20T05:16:10.466Z,89.22
2022-11-20T05:17:41.966Z,93.95
2022-11-20T05:19:34.236Z,94.82
2022-11-20T05:26:21.708Z,95.53
2022-11-20T05:28:06.403Z,89.85
2022-11-20T05:29:29.929Z,92.85
2022-11-20T05:31:06.274Z,97.90
2022-11-20T05:32:30.281Z,90.25
2022-11-20T05:34:10.133Z,97.70
2022-11-20T05:35:32.222Z,98.63
2022-11-20T05:37:10.914Z,94.68
2022-11-20T05:38:32.688Z,95.28
2022-11-20T05:39:56.176Z,93.07
2022-11-20T05:41:24.560Z,95.57
2022-11-20T05:43:04.666Z,102.50
2022-11-20T05:44:46.376Z,94.18
2022-11-20T05:46:12.722Z,102.13
2022-11-20T05:47:36.354Z,88.25
2022-11-20T05:49:00.185Z,93.90
2022-11-20T05:50:21.350Z,100.78
2022-11-20T05:51:43.800Z,96.45
2022-11-20T05:53:04.809Z,95.57
2022-11-20T05:54:27.029Z,76.07
2022-11-20T05:55:49.309Z,87.63
2022-11-20T05:57:11.237Z,91.75
2022-11-20T05:58:33.470Z,95.13
2022-11-20T05:59:57.254Z,90.07
2022-11-20T06:01:21.039Z,91.55
2022-11-20T06:02:42.116Z,91.75
2022-11-20T06:04:04.565Z,96.90
2022-11-20T06:05:25.541Z,95.13
2022-11-20T06:06:47.673Z,92.97
2022-11-20T06:09:31.782Z,93.77
2022-11-20T06:10:53.186Z,99.47
2022-11-20T06:12:16.654Z,95.80
2022-11-20T06:13:42.002Z,94.07
2022-11-20T06:15:06.489Z,100.70
2022-11-20T06:16:28.888Z,96.43
2022-11-20T06:17:55.446Z,88.40
2022-11-20T06:19:17.990Z,92.38
2022-11-20T06:20:42.236Z,93.15
2022-11-20T06:22:04.425Z,95.70
2022-11-20T06:24:50.172Z,92.65
2022-11-20T06:26:13.381Z,101.13
2022-11-20T06:27:37.074Z,101.25
2022-11-20T06:29:16.499Z,88.90
2022-11-20T06:32:10.069Z,101.22
2022-11-20T06:33:50.458Z,91.35
2022-11-20T06:35:14.245Z,94.47
2022-11-20T06:36:43.008Z,92.68
2022-11-20T06:38:05.664Z,95.75
2022-11-20T06:39:30.488Z,102.03
2022-11-20T06:40:51.527Z,97.30
2022-11-20T06:42:16.216Z,97.47
2022-11-20T06:43:39.961Z,92.13
2022-11-20T06:45:02.039Z,87.82
2022-11-20T06:46:24.737Z,94.28
2022-11-20T06:47:49.495Z,101.78
2022-11-20T06:49:11.970Z,96.38
2022-11-20T06:50:34.210Z,91.93
2022-11-20T06:52:00.707Z,95.88
2022-11-20T06:53:22.437Z,94.28
2022-11-20T06:54:44.668Z,89.47
2022-11-20T06:56:08.805Z,90.68
2022-11-20T06:57:31.414Z,92.75
2022-11-20T06:58:53.443Z,90.05
2022-11-20T07:00:16.485Z,96.20
2022-11-20T07:01:42.322Z,91.07
2022-11-20T07:03:06.320Z,90.97
2022-11-20T07:04:37.357Z,96.32
2022-11-20T07:06:11.873Z,94.15
2022-11-20T07:07:35.048Z,104.18
2022-11-20T07:09:02.950Z,103.25
2022-11-20T07:10:34.899Z,99.20
2022-11-20T07:12:08.869Z,107.38
2022-11-20T07:13:42.722Z,102.20
2022-11-20T07:15:10.942Z,130.38
2022-11-20T07:16:38.489Z,109.32
2022-11-20T07:18:10.875Z,138.05
2022-11-20T07:19:43.647Z,106.45
2022-11-20T07:21:15.315Z,108.63
2022-11-20T07:22:40.699Z,103.80
2022-11-20T07:24:03.082Z,96.45
2022-11-20T07:25:24.196Z,106.68
2022-11-20T07:26:50.059Z,76.80
2022-11-20T07:28:16.513Z,95.30
2022-11-20T07:29:48.969Z,109.53
2022-11-20T07:31:32.712Z,105.95
2022-11-20T07:33:09.959Z,100.43
2022-11-20T07:34:44.484Z,100.80
2022-11-20T07:36:19.086Z,123.50
2022-11-20T07:37:58.941Z,144.52
2022-11-20T07:39:38.631Z,139.80
2022-11-20T07:41:40.454Z,145.13
2022-11-20T07:43:45.457Z,132.60
2022-11-20T07:45:27.255Z,116.75
2022-11-20T07:47:09.556Z,119.38
2022-11-20T07:51:01.664Z,118.28
2022-11-20T07:52:33.088Z,113.03
2022-11-20T07:54:06.301Z,109.35
2022-11-20T07:55:37.272Z,113.15
2022-11-20T07:57:00.390Z,106.40
2022-11-20T07:58:29.018Z,130.40
2022-11-20T07:59:58.063Z,117.05
2022-11-20T08:01:20.807Z,97.15
2022-11-20T08:02:46.371Z,107.63
2022-11-20T08:04:46.712Z,94.82
2022-11-20T08:06:45.282Z,92.47
2022-11-20T08:08:54.970Z,92.00
2022-11-20T08:10:35.356Z,101.10
2022-11-20T08:14:13.185Z,80.30
2022-11-20T08:15:35.954Z,94.57
2022-11-20T08:16:58.478Z,82.63
2022-11-20T08:18:31.574Z,84.78
2022-11-20T08:19:54.683Z,86.05
2022-11-20T08:21:19.183Z,83.53
2022-11-20T08:22:51.533Z,74.97
2022-11-20T08:24:13.835Z,76.70
2022-11-20T08:25:37.037Z,78.35
2022-11-20T08:27:00.336Z,75.03
2022-11-20T08:28:22.462Z,76.22
2022-11-20T08:29:44.772Z,74.47
2022-11-20T08:32:28.043Z,64.57
2022-11-20T08:33:50.656Z,65.30
2022-11-20T08:35:16.174Z,69.90
2022-11-20T08:36:40.746Z,66.68
2022-11-20T08:38:08.493Z,68.45
2022-11-20T08:39:30.795Z,82.57
2022-11-20T08:41:06.545Z,79.97
2022-11-20T08:42:29.103Z,84.15
2022-11-20T08:43:52.098Z,84.75
2022-11-20T08:45:14.134Z,82.93
2022-11-20T08:46:40.626Z,80.43
2022-11-20T08:48:06.335Z,77.15
2022-11-20T08:49:32.942Z,81.15
2022-11-20T08:52:53.227Z,76.93
2022-11-20T08:54:24.356Z,69.28
2022-11-20T08:56:08.266Z,71.32
2022-11-20T08:58:31.023Z,78.72
2022-11-20T09:00:04.319Z,71.22
2022-11-20T09:01:26.326Z,66.78
2022-11-20T09:03:01.022Z,66.28
2022-11-20T09:04:25.235Z,63.85
2022-11-20T09:07:56.036Z,67.28
2022-11-20T09:09:21.781Z,62.95
2022-11-20T09:10:47.287Z,57.03
2022-11-20T09:12:10.967Z,61.17
2022-11-20T09:13:35.862Z,56.00
2022-11-20T09:15:00.080Z,60.58
2022-11-20T09:16:25.361Z,61.88
2022-11-20T09:17:53.385Z,60.42
2022-11-20T09:21:00.130Z,53.67
2022-11-20T09:22:22.439Z,51.38
2022-11-20T09:23:49.937Z,55.58
2022-11-20T09:25:13.882Z,51.78
2022-11-20T09:26:38.147Z,58.45
2022-11-20T09:28:01.203Z,53.30
2022-11-20T09:29:35.843Z,56.75
2022-11-20T09:30:59.650Z,55.17
2022-11-20T09:33:10.790Z,50.03
2022-11-20T09:34:30.337Z,53.55
2022-11-20T09:35:52.730Z,50.13
2022-11-20T09:37:17.942Z,54.40
2022-11-20T09:38:57.586Z,48.38
2022-11-20T09:40:30.400Z,48.03
2022-11-20T09:42:47.057Z,47.58
2022-11-20T09:44:23.555Z,44.97
2022-11-20T09:46:13.968Z,47.08
2022-11-20T09:48:09.310Z,46.22
2022-11-20T09:49:45.162Z,49.67
2022-11-20T09:51:28.572Z,45.28
2022-11-20T09:53:21.692Z,47.22
2022-11-20T09:55:08.555Z,42.80
2022-11-20T09:57:04.753Z,52.10
2022-11-20T10:00:29.494Z,49.47
2022-11-20T10:02:02.185Z,44.70
2022-11-20T10:03:48.279Z,45.15
2022-11-20T10:05:25.031Z,46.85
2022-11-20T10:07:30.963Z,43.25
2022-11-20T10:08:55.323Z,40.90
2022-11-20T10:10:19.827Z,47.00
2022-11-20T10:11:55.082Z,47.80
2022-11-20T10:13:43.958Z,47.42
2022-11-20T10:15:27.526Z,45.15
2022-11-20T10:17:04.166Z,44.63
2022-11-20T10:18:58.476Z,46.03
2022-11-20T10:21:46.486Z,41.65
2022-11-20T10:23:08.070Z,45.85
2022-11-20T10:25:08.502Z,50.53
2022-11-20T10:28:31.086Z,47.80
2022-11-20T10:30:13.780Z,48.33
2022-11-20T10:31:44.848Z,53.05
2022-11-20T10:33:23.763Z,50.65
2022-11-20T10:35:14.302Z,50.88
2022-11-20T10:47:26.836Z,45.08
2022-11-20T10:49:04.416Z,45.80
2022-11-20T10:50:32.738Z,49.15
2022-11-20T10:52:13.315Z,43.97
2022-11-20T10:54:11.319Z,43.42
2022-11-20T10:55:44.835Z,42.97
2022-11-20T10:57:18.244Z,44.53
2022-11-20T10:58:47.738Z,45.78
2022-11-20T11:00:25.386Z,44.58
2022-11-20T11:01:59.793Z,43.25
2022-11-20T11:03:29.831Z,49.03
2022-11-20T11:04:54.170Z,47.22
2022-11-20T11:06:24.718Z,52.63
2022-11-20T11:07:49.010Z,47.42
2022-11-20T11:09:16.042Z,50.70
2022-11-20T11:10:47.243Z,50.03
2022-11-20T11:12:11.245Z,35.38
2022-11-20T11:13:36.298Z,36.42
2022-11-20T11:14:59.912Z,37.88
2022-11-20T11:16:29.511Z,38.33
2022-11-20T11:17:56.934Z,36.17
2022-11-20T11:19:19.068Z,36.38
2022-11-20T11:20:41.268Z,34.70
2022-11-20T11:23:37.434Z,36.97
2022-11-20T11:25:01.451Z,35.00
2022-11-20T11:26:28.293Z,34.20
2022-11-20T11:27:54.004Z,35.15
2022-11-20T11:29:21.336Z,36.00
2022-11-20T11:30:49.683Z,40.53
2022-11-20T11:32:15.964Z,44.78
2022-11-20T11:33:39.984Z,38.47
2022-11-20T11:35:04.541Z,37.03
2022-11-20T11:36:29.312Z,43.05
2022-11-20T11:37:52.635Z,52.92
2022-11-20T11:39:19.936Z,47.28
2022-11-20T11:40:43.151Z,59.90
2022-11-20T11:42:05.817Z,62.20
2022-11-20T11:43:53.803Z,44.97
2022-11-20T11:45:18.533Z,70.78
2022-11-20T11:46:42.326Z,69.10
2022-11-20T11:48:06.701Z,74.07
2022-11-20T11:49:28.046Z,74.72
2022-11-20T11:50:55.094Z,57.33
2022-11-20T11:52:20.960Z,73.82
2022-11-20T11:53:45.335Z,58.53
2022-11-20T11:55:13.792Z,55.45
2022-11-20T11:56:36.070Z,56.67
2022-11-20T11:58:09.709Z,48.30
2022-11-20T11:59:49.542Z,46.65
2022-11-20T12:01:25.062Z,46.45
2022-11-20T12:02:58.938Z,50.65
2022-11-20T12:04:31.576Z,54.15
2022-11-20T12:06:06.278Z,50.95
2022-11-20T12:07:48.569Z,42.00
2022-11-20T12:09:17.776Z,44.63
2022-11-20T12:10:48.750Z,38.83
2022-11-20T12:12:22.113Z,40.97
2022-11-20T12:13:53.452Z,38.42
2022-11-20T12:15:28.512Z,38.33
2022-11-20T12:16:54.456Z,37.08
2022-11-20T12:18:27.247Z,34.70
2022-11-20T12:19:52.411Z,36.55
2022-11-20T12:21:33.688Z,52.30
2022-11-20T12:23:02.790Z,35.15
2022-11-20T12:24:53.753Z,38.22
2022-11-20T12:26:25.336Z,35.28
2022-11-20T12:28:03.873Z,29.58
2022-11-20T12:29:40.303Z,36.65
2022-11-20T12:31:21.549Z,36.40
2022-11-20T12:33:15.445Z,39.20
2022-11-20T12:34:54.138Z,37.03
2022-11-20T12:36:27.256Z,38.80
2022-11-20T12:38:05.331Z,39.67
2022-11-20T12:39:45.920Z,35.50
2022-11-20T12:41:42.720Z,32.92
2022-11-20T12:43:35.700Z,32.60
2022-11-20T12:45:34.888Z,33.80
2022-11-20T12:47:12.711Z,32.75
2022-11-20T12:48:46.646Z,31.00
2022-11-20T12:50:22.017Z,34.83
2022-11-20T12:52:19.046Z,33.15
2022-11-20T12:53:51.492Z,34.95
2022-11-20T12:55:25.040Z,35.13
2022-11-20T12:57:03.448Z,34.15
2022-11-20T12:58:42.948Z,36.40
2022-11-20T13:00:15.496Z,41.00
2022-11-20T13:01:54.727Z,36.17
2022-11-20T13:03:45.074Z,41.40
2022-11-20T13:05:22.577Z,33.40
2022-11-20T13:06:46.639Z,33.53
2022-11-20T13:08:22.432Z,33.38
2022-11-20T13:09:55.465Z,35.50
2022-11-20T13:11:25.148Z,32.75
2022-11-20T13:12:52.216Z,32.10
2022-11-20T13:14:29.024Z,35.72
2022-11-20T13:15:58.131Z,38.58
2022-11-20T13:17:26.183Z,33.22
2022-11-20T13:18:50.107Z,35.60
2022-11-20T13:20:17.653Z,35.08
2022-11-20T13:21:41.718Z,33.35
2022-11-20T13:23:06.297Z,32.30
2022-11-20T13:24:38.329Z,36.95
2022-11-20T13:26:08.858Z,36.33
2022-11-20T13:27:32.206Z,36.70
2022-11-20T13:29:07.626Z,38.38
2022-11-20T13:30:31.326Z,35.60
2022-11-20T13:31:53.834Z,35.38
2022-11-20T13:33:31.072Z,34.75
2022-11-20T13:35:02.906Z,31.67
2022-11-20T13:36:29.186Z,37.42
2022-11-20T13:38:10.369Z,44.58
2022-11-20T13:39:47.751Z,36.90
2022-11-20T13:41:47.704Z,30.13
2022-11-20T13:44:08.701Z,33.90
2022-11-20T13:46:29.551Z,30.23
2022-11-20T13:51:06.002Z,29.65
2022-11-20T13:56:22.663Z,30.15
2022-11-20T14:00:49.394Z,32.40
2022-11-20T14:02:53.626Z,32.22
2022-11-20T14:04:33.338Z,31.05
2022-11-20T14:06:12.290Z,31.27
2022-11-20T14:08:06.639Z,31.60
2022-11-20T14:09:59.243Z,33.95
2022-11-20T14:11:30.916Z,34.40
2022-11-20T14:12:57.903Z,32.25
2022-11-20T14:14:51.521Z,34.70
2022-11-20T14:16:14.423Z,38.60
2022-11-20T14:17:44.746Z,32.08
2022-11-20T14:19:32.780Z,33.60
2022-11-20T14:20:55.172Z,40.83
2022-11-20T14:22:24.300Z,35.75
2022-11-20T14:24:38.959Z,36.60
2022-11-20T14:27:01.379Z,39.03
2022-11-20T14:29:31.532Z,37.50
2022-11-20T14:31:30.822Z,43.10
2022-11-20T14:32:59.656Z,44.67
2022-11-20T14:34:47.847Z,40.70
2022-11-20T14:38:07.593Z,32.67
2022-11-20T14:39:38.676Z,41.90
2022-11-20T14:42:04.552Z,38.08
2022-11-20T14:43:37.299Z,38.13
2022-11-20T14:45:20.526Z,42.88
2022-11-20T14:46:45.609Z,42.70
2022-11-20T14:48:15.954Z,45.55
2022-11-20T14:50:20.513Z,45.65
2022-11-20T14:51:46.736Z,46.78
2022-11-20T14:53:18.857Z,47.28
2022-11-20T14:54:47.551Z,54.33
2022-11-20T14:56:11.638Z,46.40
2022-11-20T14:57:38.944Z,47.08
2022-11-20T14:59:07.816Z,55.80
2022-11-20T15:01:06.495Z,56.17
2022-11-20T15:02:36.052Z,49.10
2022-11-20T15:04:14.139Z,47.47
2022-11-20T15:06:14.219Z,47.50
2022-11-20T15:08:06.722Z,68.07
2022-11-20T15:09:33.670Z,61.73
2022-11-20T15:11:06.507Z,62.90
2022-11-20T15:12:48.577Z,46.13
2022-11-20T15:14:17.148Z,43.78
2022-11-20T15:15:52.179Z,48.13
2022-11-20T15:17:14.805Z,39.92
2022-11-20T15:18:44.378Z,38.65
2022-11-20T15:20:16.763Z,48.92
2022-11-20T15:21:47.999Z,43.72
2022-11-20T15:23:14.584Z,46.87
2022-11-20T15:24:36.831Z,40.67
2022-11-20T15:26:02.385Z,46.22
2022-11-20T15:27:33.740Z,44.40
2022-11-20T15:28:56.455Z,46.95
2022-11-20T15:30:20.602Z,50.60
2022-11-20T15:31:55.826Z,54.25
2022-11-20T15:33:44.104Z,44.83
2022-11-20T15:35:29.491Z,49.85
2022-11-20T15:36:59.364Z,50.38
2022-11-20T15:38:24.949Z,49.08
2022-11-20T15:39:48.051Z,50.75
2022-11-20T15:41:13.874Z,45.38
2022-11-20T15:42:37.858Z,50.60
2022-11-20T15:44:05.673Z,52.72
2022-11-20T15:45:30.993Z,50.20
2022-11-20T15:46:53.943Z,54.15
2022-11-20T15:48:30.427Z,51.42
2022-11-20T15:49:59.158Z,57.60
2022-11-20T15:51:31.986Z,54.33
2022-11-20T15:53:08.383Z,54.90
2022-11-20T15:54:39.514Z,60.83
2022-11-20T15:56:18.963Z,56.33
2022-11-20T15:58:14.460Z,63.55
2022-11-20T16:00:11.822Z,65.80
2022-11-20T16:01:52.302Z,75.22
2022-11-20T16:03:22.610Z,67.07
2022-11-20T16:04:56.749Z,71.45
2022-11-20T16:07:18.065Z,70.13
2022-11-20T16:08:46.765Z,72.43
2022-11-20T16:10:47.107Z,70.63
2022-11-20T16:14:33.458Z,69.10
2022-11-20T16:16:10.718Z,76.38
2022-11-20T16:17:45.263Z,81.18
2022-11-20T16:19:22.010Z,72.25
2022-11-20T16:21:14.963Z,73.03
2022-11-20T16:24:39.274Z,66.38
2022-11-20T16:26:49.739Z,71.88
2022-11-20T16:28:36.458Z,65.80
2022-11-20T16:31:04.498Z,64.03
2022-11-20T16:32:29.545Z,61.60
2022-11-20T16:34:23.128Z,58.97
2022-11-20T16:35:46.485Z,62.28
2022-11-20T16:37:44.307Z,68.43
2022-11-20T16:39:09.125Z,71.75
2022-11-20T16:40:43.944Z,67.35
2022-11-20T16:42:11.649Z,70.45
2022-11-20T16:46:17.709Z,70.95
2022-11-20T16:47:58.835Z,76.22
2022-11-20T16:50:02.186Z,68.80
2022-11-20T16:51:46.345Z,70.72
2022-11-20T16:53:14.646Z,65.68
2022-11-20T16:54:39.676Z,69.78
2022-11-20T16:56:15.631Z,64.35
2022-11-20T16:57:50.294Z,66.88
2022-11-20T16:59:30.140Z,64.65
2022-11-20T17:01:07.203Z,65.00
2022-11-20T17:02:34.716Z,61.42
2022-11-20T17:04:26.194Z,72.28
2022-11-20T17:05:55.671Z,68.40
2022-11-20T17:07:47.856Z,65.90
2022-11-20T17:11:21.357Z,67.15
2022-11-20T17:12:46.722Z,64.38
2022-11-20T17:14:19.564Z,63.33
2022-11-20T17:15:44.754Z,61.95
2022-11-20T17:17:15.730Z,72.57
2022-11-20T17:18:38.948Z,71.70
2022-11-20T17:20:10.182Z,64.82
2022-11-20T17:21:37.421Z,71.22
2022-11-20T17:23:00.375Z,63.75
2022-11-20T17:24:32.352Z,64.50
2022-11-20T17:26:00.493Z,63.00
2022-11-20T17:27:27.088Z,62.40
2022-11-20T17:28:56.597Z,62.20
2022-11-20T17:30:44.288Z,61.13
2022-11-20T17:33:44.398Z,62.40
2022-11-20T17:35:10.209Z,60.83
2022-11-20T17:36:47.170Z,69.20
2022-11-20T17:38:17.893Z,64.43
2022-11-20T17:39:46.305Z,65.07
2022-11-20T17:41:14.597Z,68.18
2022-11-20T17:42:41.743Z,66.65
2022-11-20T17:44:06.957Z,61.33
2022-11-20T17:45:35.132Z,65.75
2022-11-20T17:47:08.165Z,69.20
2022-11-20T17:48:43.031Z,68.47
2022-11-20T17:50:13.659Z,65.00
2022-11-20T17:52:15.013Z,63.83
2022-11-20T18:01:43.280Z,73.57
2022-11-20T18:03:51.170Z,76.53
2022-11-20T18:05:16.866Z,71.07
2022-11-20T18:06:41.199Z,76.47
2022-11-20T18:14:17.238Z,69.65
2022-11-20T18:16:08.863Z,68.53
2022-11-20T18:20:43.909Z,75.10
2022-11-20T18:36:02.547Z,72.15
2022-11-20T18:37:56.675Z,71.10
2022-11-20T18:39:31.036Z,75.22
2022-11-20T18:49:40.689Z,86.57
2022-11-20T18:55:55.818Z,89.25
2022-11-20T18:57:21.700Z,78.00
2022-11-20T18:58:44.503Z,84.50
2022-11-20T19:01:32.811Z,83.88
2022-11-20T19:02:55.780Z,85.15
2022-11-20T19:04:19.733Z,78.30
2022-11-20T19:05:44.777Z,79.20
2022-11-20T19:07:07.175Z,82.10
2022-11-20T19:08:32.043Z,84.85
2022-11-20T19:09:56.608Z,82.88
2022-11-20T19:11:22.380Z,80.57
2022-11-20T19:12:54.282Z,84.53
2022-11-20T19:14:26.417Z,98.97
2022-11-20T19:15:49.118Z,99.05
2022-11-20T19:17:13.045Z,88.50
2022-11-20T19:18:35.661Z,88.88
2022-11-20T19:19:58.072Z,93.47
2022-11-20T19:21:22.292Z,83.97
2022-11-20T19:22:44.693Z,84.60
2022-11-20T19:24:11.715Z,83.63
2022-11-20T19:25:38.210Z,77.05
2022-11-20T19:27:04.783Z,78.78
2022-11-20T19:28:27.148Z,82.18
2022-11-20T19:29:49.544Z,83.07
2022-11-20T19:31:14.047Z,89.72
2022-11-20T19:32:36.110Z,82.72
2022-11-20T19:33:59.484Z,86.15
2022-11-20T19:35:21.854Z,90.90
2022-11-20T19:36:56.096Z,89.53
2022-11-20T19:38:19.190Z,91.00
2022-11-20T19:39:45.192Z,89.00
2022-11-20T19:41:07.987Z,98.63
2022-11-20T19:42:32.166Z,100.85
2022-11-20T19:43:56.311Z,95.50
2022-11-20T19:45:19.529Z,95.88
2022-11-20T19:46:42.971Z,92.15
2022-11-20T19:48:08.236Z,88.85
2022-11-20T19:49:30.935Z,93.88
2022-11-20T19:52:13.780Z,85.93
2022-11-20T19:53:36.003Z,85.95
2022-11-20T19:54:58.656Z,90.15
2022-11-20T19:56:21.173Z,93.45
2022-11-20T19:57:45.636Z,95.07
2022-11-20T19:59:09.992Z,89.70
2022-11-20T20:00:40.426Z,87.70
2022-11-20T20:02:03.797Z,86.75
2022-11-20T20:03:24.974Z,88.85
2022-11-20T20:04:47.361Z,82.97
2022-11-20T20:06:11.735Z,93.00
2022-11-20T20:07:40.225Z,91.90
2022-11-20T20:09:05.113Z,85.97
2022-11-20T20:10:28.724Z,82.68
2022-11-20T20:11:51.190Z,97.50
2022-11-20T20:13:15.003Z,95.32
2022-11-20T20:14:37.595Z,91.70
2022-11-20T20:15:59.530Z,97.88
2022-11-20T20:17:21.724Z,99.22
2022-11-20T20:18:46.929Z,91.95
2022-11-20T20:20:15.812Z,98.00
2022-11-20T20:21:39.719Z,97.15
2022-11-20T20:23:02.932Z,103.90
2022-11-20T20:24:25.188Z,107.65
2022-11-20T20:25:50.000Z,102.63
2022-11-20T20:27:12.227Z,106.32
2022-11-20T20:28:37.473Z,103.80
2022-11-20T20:30:00.067Z,105.60
2022-11-20T20:31:27.064Z,103.55
2022-11-20T20:32:53.446Z,107.55
2022-11-20T20:34:17.656Z,115.07
2022-11-20T20:35:42.730Z,112.15
2022-11-20T20:37:05.554Z,111.07
2022-11-20T20:38:30.115Z,112.88
2022-11-20T20:39:54.570Z,117.03
2022-11-20T20:41:20.238Z,113.47
2022-11-20T20:42:45.238Z,112.05
2022-11-20T20:45:01.128Z,124.63
2022-11-20T20:46:23.748Z,107.43
2022-11-20T20:47:46.344Z,110.50
2022-11-20T20:49:09.141Z,109.82
2022-11-20T20:51:09.410Z,106.05
2022-11-20T20:52:38.470Z,102.15
2022-11-20T20:54:01.014Z,113.32
2022-11-20T20:55:29.250Z,103.20
2022-11-20T20:56:59.276Z,99.97
2022-11-20T21:00:09.362Z,96.57
2022-11-20T21:01:31.823Z,95.70
2022-11-20T21:02:58.946Z,104.63
2022-11-20T21:04:21.331Z,103.65
2022-11-20T21:05:43.413Z,97.38
2022-11-20T21:07:07.450Z,101.18
2022-11-20T21:08:45.275Z,94.50
2022-11-20T21:10:11.048Z,98.32
2022-11-20T21:11:33.535Z,102.20
2022-11-20T21:12:55.941Z,96.53
2022-11-20T21:14:18.536Z,98.88
2022-11-20T21:15:42.870Z,106.78
2022-11-20T21:17:05.432Z,93.55
2022-11-20T21:18:34.241Z,99.32
2022-11-20T21:19:56.420Z,99.60
2022-11-20T21:21:36.924Z,102.03
2022-11-20T21:23:01.621Z,108.68
2022-11-20T21:24:30.960Z,103.25
2022-11-20T21:26:09.936Z,108.93
2022-11-20T21:27:34.104Z,105.45
2022-11-20T21:28:58.259Z,105.13
2022-11-20T21:30:28.537Z,103.45